sensor_id;sensor_type;location;lat;lon;timestamp;P1;durP1;ratioP1;P2;durP2;ratioP2
61336;SDS011;47212;41.326;2.104;2023-06-10T00:02:41;11.75;;;6.95;;
61336;SDS011;47212;41.326;2.104;2023-06-10T00:07:57;11.77;;;7.28;;
61336;SDS011;47212;41.326;2.104;2023-06-10T00:13:04;9.57;;;5.30;;
61336;SDS011;47212;41.326;2.104;2023-06-10T00:18:15;11.85;;;5.20;;
61336;SDS011;47212;41.326;2.104;2023-06-10T00:23:22;5.47;;;3.55;;
61336;SDS011;47212;41.326;2.104;2023-06-10T00:28:35;4.88;;;2.85;;
61336;SDS011;47212;41.326;2.104;2023-06-10T00:33:45;9.65;;;3.90;;
61336;SDS011;47212;41.326;2.104;2023-06-10T00:38:54;10.60;;;5.13;;
61336;SDS011;47212;41.326;2.104;2023-06-10T00:43:59;7.60;;;4.18;;
61336;SDS011;47212;41.326;2.104;2023-06-10T00:49:14;10.98;;;5.25;;
61336;SDS011;47212;41.326;2.104;2023-06-10T00:54:21;9.55;;;5.07;;
61336;SDS011;47212;41.326;2.104;2023-06-10T00:59:28;12.02;;;5.72;;
61336;SDS011;47212;41.326;2.104;2023-06-10T01:05:38;15.35;;;6.45;;
61336;SDS011;47212;41.326;2.104;2023-06-10T01:10:50;11.68;;;5.43;;
61336;SDS011;47212;41.326;2.104;2023-06-10T01:16:10;18.00;;;5.80;;
61336;SDS011;47212;41.326;2.104;2023-06-10T01:21:20;9.68;;;5.18;;
61336;SDS011;47212;41.326;2.104;2023-06-10T01:26:36;6.95;;;4.85;;
61336;SDS011;47212;41.326;2.104;2023-06-10T01:31:48;9.98;;;5.78;;
61336;SDS011;47212;41.326;2.104;2023-06-10T01:42:16;8.30;;;4.85;;
61336;SDS011;47212;41.326;2.104;2023-06-10T01:47:23;7.40;;;4.00;;
61336;SDS011;47212;41.326;2.104;2023-06-10T01:52:28;4.90;;;3.65;;
61336;SDS011;47212;41.326;2.104;2023-06-10T01:57:37;5.00;;;3.13;;
61336;SDS011;47212;41.326;2.104;2023-06-10T02:02:44;5.70;;;3.50;;
61336;SDS011;47212;41.326;2.104;2023-06-10T02:07:56;5.30;;;3.03;;
61336;SDS011;47212;41.326;2.104;2023-06-10T02:13:02;5.30;;;3.25;;
61336;SDS011;47212;41.326;2.104;2023-06-10T02:18:19;7.65;;;3.47;;
61336;SDS011;47212;41.326;2.104;2023-06-10T02:23:37;5.47;;;3.78;;
61336;SDS011;47212;41.326;2.104;2023-06-10T02:28:45;5.63;;;3.20;;
61336;SDS011;47212;41.326;2.104;2023-06-10T02:33:49;6.00;;;3.88;;
61336;SDS011;47212;41.326;2.104;2023-06-10T02:38:54;9.10;;;3.75;;
61336;SDS011;47212;41.326;2.104;2023-06-10T02:44:00;6.13;;;2.83;;
61336;SDS011;47212;41.326;2.104;2023-06-10T02:49:03;4.85;;;2.70;;
61336;SDS011;47212;41.326;2.104;2023-06-10T02:54:14;4.60;;;3.40;;
61336;SDS011;47212;41.326;2.104;2023-06-10T02:59:25;6.20;;;3.75;;
61336;SDS011;47212;41.326;2.104;2023-06-10T03:04:32;5.97;;;3.80;;
61336;SDS011;47212;41.326;2.104;2023-06-10T03:09:42;9.77;;;4.43;;
61336;SDS011;47212;41.326;2.104;2023-06-10T03:14:51;6.22;;;4.03;;
61336;SDS011;47212;41.326;2.104;2023-06-10T03:20:01;9.60;;;4.47;;
61336;SDS011;47212;41.326;2.104;2023-06-10T03:25:12;7.43;;;4.00;;
61336;SDS011;47212;41.326;2.104;2023-06-10T03:36:03;5.25;;;3.65;;
61336;SDS011;47212;41.326;2.104;2023-06-10T03:41:17;8.65;;;4.57;;
61336;SDS011;47212;41.326;2.104;2023-06-10T03:46:23;10.90;;;4.35;;
61336;SDS011;47212;41.326;2.104;2023-06-10T03:51:36;8.60;;;4.63;;
61336;SDS011;47212;41.326;2.104;2023-06-10T03:56:41;7.35;;;4.38;;
61336;SDS011;47212;41.326;2.104;2023-06-10T04:08:55;6.90;;;4.28;;
61336;SDS011;47212;41.326;2.104;2023-06-10T04:16:23;5.57;;;3.80;;
61336;SDS011;47212;41.326;2.104;2023-06-10T04:21:26;7.38;;;4.82;;
61336;SDS011;47212;41.326;2.104;2023-06-10T04:26:31;6.25;;;3.90;;
61336;SDS011;47212;41.326;2.104;2023-06-10T04:31:35;7.75;;;4.13;;
61336;SDS011;47212;41.326;2.104;2023-06-10T04:36:38;8.90;;;5.00;;
61336;SDS011;47212;41.326;2.104;2023-06-10T04:41:41;7.88;;;4.38;;
61336;SDS011;47212;41.326;2.104;2023-06-10T04:46:43;6.57;;;4.00;;
61336;SDS011;47212;41.326;2.104;2023-06-10T04:51:47;6.20;;;3.35;;
61336;SDS011;47212;41.326;2.104;2023-06-10T04:56:49;5.30;;;3.40;;
61336;SDS011;47212;41.326;2.104;2023-06-10T05:01:51;7.63;;;3.00;;
61336;SDS011;47212;41.326;2.104;2023-06-10T05:06:54;9.88;;;3.70;;
61336;SDS011;47212;41.326;2.104;2023-06-10T05:11:56;9.55;;;3.97;;
61336;SDS011;47212;41.326;2.104;2023-06-10T05:17:01;7.43;;;3.63;;
61336;SDS011;47212;41.326;2.104;2023-06-10T05:22:04;6.65;;;3.60;;
61336;SDS011;47212;41.326;2.104;2023-06-10T05:27:06;4.70;;;2.97;;
61336;SDS011;47212;41.326;2.104;2023-06-10T05:32:09;6.80;;;3.10;;
61336;SDS011;47212;41.326;2.104;2023-06-10T05:37:17;9.13;;;3.00;;
61336;SDS011;47212;41.326;2.104;2023-06-10T05:42:19;8.73;;;3.40;;
61336;SDS011;47212;41.326;2.104;2023-06-10T05:47:46;6.88;;;3.67;;
61336;SDS011;47212;41.326;2.104;2023-06-10T05:52:56;6.10;;;2.80;;
61336;SDS011;47212;41.326;2.104;2023-06-10T05:57:59;7.32;;;3.47;;
61336;SDS011;47212;41.326;2.104;2023-06-10T06:03:02;5.82;;;3.08;;
61336;SDS011;47212;41.326;2.104;2023-06-10T06:08:12;7.93;;;3.35;;
61336;SDS011;47212;41.326;2.104;2023-06-10T06:13:15;6.32;;;3.03;;
61336;SDS011;47212;41.326;2.104;2023-06-10T06:18:21;5.90;;;3.20;;
61336;SDS011;47212;41.326;2.104;2023-06-10T06:23:25;6.32;;;3.80;;
61336;SDS011;47212;41.326;2.104;2023-06-10T06:28:27;6.00;;;3.65;;
61336;SDS011;47212;41.326;2.104;2023-06-10T06:33:38;3.40;;;2.72;;
61336;SDS011;47212;41.326;2.104;2023-06-10T06:38:42;5.53;;;2.80;;
61336;SDS011;47212;41.326;2.104;2023-06-10T06:43:50;5.10;;;3.03;;
61336;SDS011;47212;41.326;2.104;2023-06-10T06:49:03;4.45;;;2.63;;
61336;SDS011;47212;41.326;2.104;2023-06-10T06:54:05;3.30;;;2.28;;
61336;SDS011;47212;41.326;2.104;2023-06-10T06:59:11;3.05;;;2.25;;
61336;SDS011;47212;41.326;2.104;2023-06-10T07:04:15;2.65;;;2.08;;
61336;SDS011;47212;41.326;2.104;2023-06-10T07:14:51;5.22;;;3.30;;
61336;SDS011;47212;41.326;2.104;2023-06-10T07:19:53;3.17;;;2.35;;
61336;SDS011;47212;41.326;2.104;2023-06-10T07:24:59;4.95;;;3.08;;
61336;SDS011;47212;41.326;2.104;2023-06-10T07:35:29;5.90;;;3.28;;
61336;SDS011;47212;41.326;2.104;2023-06-10T07:40:32;8.68;;;4.40;;
61336;SDS011;47212;41.326;2.104;2023-06-10T07:45:36;7.10;;;4.50;;
61336;SDS011;47212;41.326;2.104;2023-06-10T07:50:38;10.63;;;4.70;;
61336;SDS011;47212;41.326;2.104;2023-06-10T07:55:40;8.35;;;5.70;;
61336;SDS011;47212;41.326;2.104;2023-06-10T08:00:43;8.40;;;4.70;;
61336;SDS011;47212;41.326;2.104;2023-06-10T08:05:49;11.55;;;5.65;;
61336;SDS011;47212;41.326;2.104;2023-06-10T08:10:52;8.70;;;4.95;;
61336;SDS011;47212;41.326;2.104;2023-06-10T08:15:54;7.13;;;4.38;;
61336;SDS011;47212;41.326;2.104;2023-06-10T08:20:57;8.45;;;4.13;;
61336;SDS011;47212;41.326;2.104;2023-06-10T08:26:00;6.05;;;4.10;;
61336;SDS011;47212;41.326;2.104;2023-06-10T08:31:02;5.78;;;3.60;;
61336;SDS011;47212;41.326;2.104;2023-06-10T08:36:06;7.93;;;3.55;;
61336;SDS011;47212;41.326;2.104;2023-06-10T08:41:09;6.25;;;3.72;;
61336;SDS011;47212;41.326;2.104;2023-06-10T08:46:13;6.60;;;4.00;;
61336;SDS011;47212;41.326;2.104;2023-06-10T08:51:16;7.25;;;3.63;;
61336;SDS011;47212;41.326;2.104;2023-06-10T08:56:20;6.80;;;3.80;;
61336;SDS011;47212;41.326;2.104;2023-06-10T09:02:18;6.50;;;3.80;;
61336;SDS011;47212;41.326;2.104;2023-06-10T09:07:22;8.93;;;4.45;;
61336;SDS011;47212;41.326;2.104;2023-06-10T09:12:25;5.47;;;2.85;;
61336;SDS011;47212;41.326;2.104;2023-06-10T09:17:30;5.95;;;3.05;;
61336;SDS011;47212;41.326;2.104;2023-06-10T09:22:33;5.70;;;2.50;;
61336;SDS011;47212;41.326;2.104;2023-06-10T09:35:45;4.38;;;2.50;;
61336;SDS011;47212;41.326;2.104;2023-06-10T09:40:53;5.30;;;2.45;;
61336;SDS011;47212;41.326;2.104;2023-06-10T09:46:00;8.38;;;7.22;;
61336;SDS011;47212;41.326;2.104;2023-06-10T09:51:08;8.52;;;4.53;;
61336;SDS011;47212;41.326;2.104;2023-06-10T09:56:11;7.57;;;3.80;;
61336;SDS011;47212;41.326;2.104;2023-06-10T10:01:14;4.38;;;2.75;;
61336;SDS011;47212;41.326;2.104;2023-06-10T10:06:20;6.80;;;3.22;;
61336;SDS011;47212;41.326;2.104;2023-06-10T10:11:24;8.52;;;3.08;;
61336;SDS011;47212;41.326;2.104;2023-06-10T10:16:37;7.50;;;2.67;;
61336;SDS011;47212;41.326;2.104;2023-06-10T10:21:50;8.63;;;3.00;;
61336;SDS011;47212;41.326;2.104;2023-06-10T10:26:57;5.20;;;2.75;;
61336;SDS011;47212;41.326;2.104;2023-06-10T10:32:03;4.18;;;2.45;;
61336;SDS011;47212;41.326;2.104;2023-06-10T10:37:09;12.60;;;7.90;;
61336;SDS011;47212;41.326;2.104;2023-06-10T10:42:14;8.88;;;4.55;;
61336;SDS011;47212;41.326;2.104;2023-06-10T10:47:18;6.95;;;4.32;;
61336;SDS011;47212;41.326;2.104;2023-06-10T10:52:23;6.15;;;3.45;;
61336;SDS011;47212;41.326;2.104;2023-06-10T10:57:28;10.40;;;4.53;;
61336;SDS011;47212;41.326;2.104;2023-06-10T11:07:53;12.82;;;6.07;;
61336;SDS011;47212;41.326;2.104;2023-06-10T11:12:59;13.45;;;5.38;;
61336;SDS011;47212;41.326;2.104;2023-06-10T11:18:22;11.23;;;5.25;;
61336;SDS011;47212;41.326;2.104;2023-06-10T11:23:38;11.05;;;5.88;;
61336;SDS011;47212;41.326;2.104;2023-06-10T11:34:10;8.27;;;4.75;;
61336;SDS011;47212;41.326;2.104;2023-06-10T11:39:13;10.85;;;5.47;;
61336;SDS011;47212;41.326;2.104;2023-06-10T11:44:15;11.50;;;5.88;;
61336;SDS011;47212;41.326;2.104;2023-06-10T11:49:20;8.60;;;4.93;;
61336;SDS011;47212;41.326;2.104;2023-06-10T11:54:23;11.52;;;6.05;;
61336;SDS011;47212;41.326;2.104;2023-06-10T11:59:28;12.63;;;5.60;;
61336;SDS011;47212;41.326;2.104;2023-06-10T12:04:31;7.70;;;4.40;;
61336;SDS011;47212;41.326;2.104;2023-06-10T12:09:39;13.63;;;5.90;;
61336;SDS011;47212;41.326;2.104;2023-06-10T12:14:57;9.18;;;4.75;;
61336;SDS011;47212;41.326;2.104;2023-06-10T12:20:30;10.07;;;4.88;;
61336;SDS011;47212;41.326;2.104;2023-06-10T12:25:36;10.50;;;5.35;;
61336;SDS011;47212;41.326;2.104;2023-06-10T12:30:41;11.27;;;5.35;;
61336;SDS011;47212;41.326;2.104;2023-06-10T12:35:50;10.40;;;5.05;;
61336;SDS011;47212;41.326;2.104;2023-06-10T12:40:53;9.27;;;5.32;;
61336;SDS011;47212;41.326;2.104;2023-06-10T12:45:56;8.52;;;4.35;;
61336;SDS011;47212;41.326;2.104;2023-06-10T12:51:15;11.25;;;5.25;;
61336;SDS011;47212;41.326;2.104;2023-06-10T12:56:18;11.55;;;5.05;;
61336;SDS011;47212;41.326;2.104;2023-06-10T13:01:20;11.43;;;4.60;;
61336;SDS011;47212;41.326;2.104;2023-06-10T13:06:23;12.35;;;5.57;;
61336;SDS011;47212;41.326;2.104;2023-06-10T13:11:25;8.05;;;4.40;;
61336;SDS011;47212;41.326;2.104;2023-06-10T13:16:28;5.90;;;4.28;;
61336;SDS011;47212;41.326;2.104;2023-06-10T13:21:31;7.03;;;3.92;;
61336;SDS011;47212;41.326;2.104;2023-06-10T13:26:34;8.73;;;3.90;;
61336;SDS011;47212;41.326;2.104;2023-06-10T13:31:36;10.23;;;4.43;;
61336;SDS011;47212;41.326;2.104;2023-06-10T13:36:39;9.07;;;4.00;;
61336;SDS011;47212;41.326;2.104;2023-06-10T13:41:41;10.95;;;4.88;;
61336;SDS011;47212;41.326;2.104;2023-06-10T13:46:43;7.57;;;4.38;;
61336;SDS011;47212;41.326;2.104;2023-06-10T13:51:58;8.45;;;3.70;;
61336;SDS011;47212;41.326;2.104;2023-06-10T13:57:01;8.65;;;4.05;;
61336;SDS011;47212;41.326;2.104;2023-06-10T14:02:03;9.73;;;4.40;;
61336;SDS011;47212;41.326;2.104;2023-06-10T14:07:06;6.68;;;3.90;;
61336;SDS011;47212;41.326;2.104;2023-06-10T14:12:09;10.68;;;4.63;;
61336;SDS011;47212;41.326;2.104;2023-06-10T14:17:11;8.65;;;4.10;;
61336;SDS011;47212;41.326;2.104;2023-06-10T14:22:14;9.23;;;3.40;;
61336;SDS011;47212;41.326;2.104;2023-06-10T14:27:16;9.02;;;3.78;;
61336;SDS011;47212;41.326;2.104;2023-06-10T14:32:18;9.40;;;4.90;;
61336;SDS011;47212;41.326;2.104;2023-06-10T14:37:21;13.35;;;4.55;;
61336;SDS011;47212;41.326;2.104;2023-06-10T14:42:23;8.00;;;3.97;;
61336;SDS011;47212;41.326;2.104;2023-06-10T14:47:25;11.70;;;4.43;;
61336;SDS011;47212;41.326;2.104;2023-06-10T14:52:28;9.80;;;4.03;;
61336;SDS011;47212;41.326;2.104;2023-06-10T14:57:30;10.13;;;4.88;;
61336;SDS011;47212;41.326;2.104;2023-06-10T15:02:37;12.68;;;4.88;;
61336;SDS011;47212;41.326;2.104;2023-06-10T15:07:39;8.13;;;4.60;;
61336;SDS011;47212;41.326;2.104;2023-06-10T15:12:42;15.32;;;5.07;;
61336;SDS011;47212;41.326;2.104;2023-06-10T15:17:47;8.65;;;4.40;;
61336;SDS011;47212;41.326;2.104;2023-06-10T15:22:49;10.45;;;4.60;;
61336;SDS011;47212;41.326;2.104;2023-06-10T15:27:52;8.82;;;4.60;;
61336;SDS011;47212;41.326;2.104;2023-06-10T15:32:54;11.00;;;4.75;;
61336;SDS011;47212;41.326;2.104;2023-06-10T15:37:57;10.00;;;4.45;;
61336;SDS011;47212;41.326;2.104;2023-06-10T15:42:59;9.27;;;4.20;;
61336;SDS011;47212;41.326;2.104;2023-06-10T15:48:02;9.10;;;4.43;;
61336;SDS011;47212;41.326;2.104;2023-06-10T15:53:08;10.25;;;4.20;;
61336;SDS011;47212;41.326;2.104;2023-06-10T15:58:11;6.95;;;3.92;;
61336;SDS011;47212;41.326;2.104;2023-06-10T16:03:13;7.78;;;4.38;;
61336;SDS011;47212;41.326;2.104;2023-06-10T16:08:16;6.68;;;3.72;;
61336;SDS011;47212;41.326;2.104;2023-06-10T16:13:18;8.70;;;4.00;;
61336;SDS011;47212;41.326;2.104;2023-06-10T16:18:20;7.80;;;4.25;;
61336;SDS011;47212;41.326;2.104;2023-06-10T16:23:22;9.55;;;3.75;;
61336;SDS011;47212;41.326;2.104;2023-06-10T16:28:25;9.85;;;4.00;;
61336;SDS011;47212;41.326;2.104;2023-06-10T16:33:27;8.35;;;4.05;;
61336;SDS011;47212;41.326;2.104;2023-06-10T16:38:29;10.25;;;4.63;;
61336;SDS011;47212;41.326;2.104;2023-06-10T16:43:32;8.32;;;3.80;;
61336;SDS011;47212;41.326;2.104;2023-06-10T16:48:34;8.73;;;4.63;;
61336;SDS011;47212;41.326;2.104;2023-06-10T16:53:36;6.03;;;3.58;;
61336;SDS011;47212;41.326;2.104;2023-06-10T16:58:38;7.50;;;3.55;;
61336;SDS011;47212;41.326;2.104;2023-06-10T17:03:41;9.07;;;4.07;;
61336;SDS011;47212;41.326;2.104;2023-06-10T17:08:43;9.98;;;4.07;;
61336;SDS011;47212;41.326;2.104;2023-06-10T17:13:49;8.32;;;4.20;;
61336;SDS011;47212;41.326;2.104;2023-06-10T17:18:54;7.25;;;3.47;;
61336;SDS011;47212;41.326;2.104;2023-06-10T17:24:03;7.88;;;3.45;;
61336;SDS011;47212;41.326;2.104;2023-06-10T17:29:10;9.32;;;3.92;;
61336;SDS011;47212;41.326;2.104;2023-06-10T17:34:12;7.97;;;3.70;;
61336;SDS011;47212;41.326;2.104;2023-06-10T17:39:14;7.75;;;3.20;;
61336;SDS011;47212;41.326;2.104;2023-06-10T17:44:17;8.00;;;3.55;;
61336;SDS011;47212;41.326;2.104;2023-06-10T17:49:26;6.10;;;3.38;;
61336;SDS011;47212;41.326;2.104;2023-06-10T17:54:33;8.00;;;3.53;;
61336;SDS011;47212;41.326;2.104;2023-06-10T17:59:36;8.65;;;3.65;;
61336;SDS011;47212;41.326;2.104;2023-06-10T18:04:38;7.53;;;3.40;;
61336;SDS011;47212;41.326;2.104;2023-06-10T18:09:42;8.52;;;3.35;;
61336;SDS011;47212;41.326;2.104;2023-06-10T18:14:45;7.85;;;3.72;;
61336;SDS011;47212;41.326;2.104;2023-06-10T18:19:47;9.98;;;4.10;;
61336;SDS011;47212;41.326;2.104;2023-06-10T18:24:49;10.98;;;4.18;;
61336;SDS011;47212;41.326;2.104;2023-06-10T18:29:54;10.88;;;5.18;;
61336;SDS011;47212;41.326;2.104;2023-06-10T18:34:59;8.48;;;4.00;;
61336;SDS011;47212;41.326;2.104;2023-06-10T18:40:01;11.45;;;5.25;;
61336;SDS011;47212;41.326;2.104;2023-06-10T18:45:08;8.98;;;4.60;;
61336;SDS011;47212;41.326;2.104;2023-06-10T18:50:12;9.90;;;4.35;;
61336;SDS011;47212;41.326;2.104;2023-06-10T18:55:14;9.93;;;5.13;;
61336;SDS011;47212;41.326;2.104;2023-06-10T19:00:19;9.55;;;4.63;;
61336;SDS011;47212;41.326;2.104;2023-06-10T19:05:22;6.18;;;4.50;;
61336;SDS011;47212;41.326;2.104;2023-06-10T19:10:25;8.60;;;4.60;;
61336;SDS011;47212;41.326;2.104;2023-06-10T19:15:27;8.82;;;4.40;;
61336;SDS011;47212;41.326;2.104;2023-06-10T19:20:30;11.10;;;5.05;;
61336;SDS011;47212;41.326;2.104;2023-06-10T19:25:32;6.55;;;4.28;;
61336;SDS011;47212;41.326;2.104;2023-06-10T19:30:35;10.75;;;4.72;;
61336;SDS011;47212;41.326;2.104;2023-06-10T19:35:38;12.98;;;4.95;;
61336;SDS011;47212;41.326;2.104;2023-06-10T19:40:46;13.68;;;5.43;;
61336;SDS011;47212;41.326;2.104;2023-06-10T19:45:48;9.73;;;4.78;;
61336;SDS011;47212;41.326;2.104;2023-06-10T19:50:51;14.73;;;5.78;;
61336;SDS011;47212;41.326;2.104;2023-06-10T19:55:53;9.88;;;4.90;;
61336;SDS011;47212;41.326;2.104;2023-06-10T20:00:55;12.43;;;7.00;;
61336;SDS011;47212;41.326;2.104;2023-06-10T20:05:57;8.38;;;4.55;;
61336;SDS011;47212;41.326;2.104;2023-06-10T20:11:00;11.73;;;5.15;;
61336;SDS011;47212;41.326;2.104;2023-06-10T20:16:04;9.18;;;5.00;;
61336;SDS011;47212;41.326;2.104;2023-06-10T20:21:07;9.02;;;5.70;;
61336;SDS011;47212;41.326;2.104;2023-06-10T20:26:12;12.57;;;5.78;;
61336;SDS011;47212;41.326;2.104;2023-06-10T20:31:14;8.68;;;4.72;;
61336;SDS011;47212;41.326;2.104;2023-06-10T20:36:16;9.15;;;5.28;;
61336;SDS011;47212;41.326;2.104;2023-06-10T20:41:20;10.98;;;5.47;;
61336;SDS011;47212;41.326;2.104;2023-06-10T20:46:23;11.82;;;5.80;;
61336;SDS011;47212;41.326;2.104;2023-06-10T20:51:28;10.13;;;5.65;;
61336;SDS011;47212;41.326;2.104;2023-06-10T20:56:30;7.50;;;4.13;;
61336;SDS011;47212;41.326;2.104;2023-06-10T21:01:32;7.82;;;4.57;;
61336;SDS011;47212;41.326;2.104;2023-06-10T21:06:35;12.68;;;6.57;;
61336;SDS011;47212;41.326;2.104;2023-06-10T21:11:37;10.57;;;5.55;;
61336;SDS011;47212;41.326;2.104;2023-06-10T21:16:39;9.93;;;4.80;;
61336;SDS011;47212;41.326;2.104;2023-06-10T21:21:42;8.77;;;4.45;;
61336;SDS011;47212;41.326;2.104;2023-06-10T21:26:45;9.20;;;4.57;;
61336;SDS011;47212;41.326;2.104;2023-06-10T21:31:47;12.30;;;5.60;;
61336;SDS011;47212;41.326;2.104;2023-06-10T21:36:53;12.77;;;6.65;;
61336;SDS011;47212;41.326;2.104;2023-06-10T21:41:56;11.20;;;6.25;;
61336;SDS011;47212;41.326;2.104;2023-06-10T21:46:58;8.13;;;5.22;;
61336;SDS011;47212;41.326;2.104;2023-06-10T21:52:01;15.35;;;8.05;;
61336;SDS011;47212;41.326;2.104;2023-06-10T21:57:05;17.63;;;6.88;;
61336;SDS011;47212;41.326;2.104;2023-06-10T22:02:08;12.50;;;5.75;;
61336;SDS011;47212;41.326;2.104;2023-06-10T22:07:11;12.23;;;6.82;;
61336;SDS011;47212;41.326;2.104;2023-06-10T22:12:15;10.30;;;6.15;;
61336;SDS011;47212;41.326;2.104;2023-06-10T22:17:18;11.35;;;6.75;;
61336;SDS011;47212;41.326;2.104;2023-06-10T22:22:21;11.15;;;7.20;;
61336;SDS011;47212;41.326;2.104;2023-06-10T22:27:25;14.05;;;7.28;;
61336;SDS011;47212;41.326;2.104;2023-06-10T22:32:28;17.58;;;7.97;;
61336;SDS011;47212;41.326;2.104;2023-06-10T22:37:30;14.35;;;7.15;;
61336;SDS011;47212;41.326;2.104;2023-06-10T22:42:33;12.13;;;7.93;;
61336;SDS011;47212;41.326;2.104;2023-06-10T22:47:41;13.75;;;9.80;;
61336;SDS011;47212;41.326;2.104;2023-06-10T22:52:51;12.20;;;7.32;;
61336;SDS011;47212;41.326;2.104;2023-06-10T22:57:55;12.27;;;8.65;;
61336;SDS011;47212;41.326;2.104;2023-06-10T23:02:57;13.70;;;9.65;;
61336;SDS011;47212;41.326;2.104;2023-06-10T23:08:00;18.10;;;11.48;;
61336;SDS011;47212;41.326;2.104;2023-06-10T23:13:03;19.60;;;14.52;;
61336;SDS011;47212;41.326;2.104;2023-06-10T23:18:05;18.05;;;11.18;;
61336;SDS011;47212;41.326;2.104;2023-06-10T23:23:09;10.68;;;6.80;;
61336;SDS011;47212;41.326;2.104;2023-06-10T23:28:16;8.55;;;5.35;;
61336;SDS011;47212;41.326;2.104;2023-06-10T23:33:18;9.70;;;5.55;;
61336;SDS011;47212;41.326;2.104;2023-06-10T23:38:22;6.60;;;4.13;;
61336;SDS011;47212;41.326;2.104;2023-06-10T23:43:24;7.50;;;3.88;;
61336;SDS011;47212;41.326;2.104;2023-06-10T23:48:29;9.18;;;4.30;;
61336;SDS011;47212;41.326;2.104;2023-06-10T23:58:59;6.28;;;3.67;;
